KBEC/BEC METAR and TAF weather

Enter ICAO airport designator
Station Type Date Time Source
KBEC METAR 2022/01/26 14:15 UTC NOAA

KBEC 261415Z AUTO 21004KT 10SM CLR M10/M17 A3045 RMK AO2 T10991172


Station Type Date Time Source
KBEC Decoded METAR 2022/01/26 14:15 UTC NOAA

Station name not available
Jan 26, 2022 - 09:15 AM EST / 2022.01.26 1415 UTC
Wind: from the SSW (210 degrees) at 5 MPH (4 KT):0
Visibility: 10 mile(s):0
Sky conditions: clear
Temperature: 14.2 F (-9.9 C)
Windchill: 6 F (-14 C):1
Dew Point: 1.0 F (-17.2 C)
Relative Humidity: 55%
Pressure (altimeter): 30.45 in. Hg (1031 hPa)
ob: KBEC 261415Z AUTO 21004KT 10SM CLR M10/M17 A3045 RMK AO2 T10991172
cycle: 14

Station Type Date Time Source
KBEC TAF UTC NOAA

Error!

Example: see airport list